PWSweather.com
Personal Weather Stations
Station Observations
KCAEXETE14
Park Place, Exeter, CA 93221

Park PlaceExeter, CA 93221

Lat: 36.283487, Lon: -119.152218

Elevation: 380

Station Type: Davis Vantage Vue

http://weather.manyjourneys.com/

High Low Average
Temperature 87.0°F30.6°C 63.6°F17.6°C 73.9°F23.3°C
Dew Point 67.8°F19.9°C 55.3°F12.9°C 61.8°F16.6°C
Winds 3.5 mph 5.6 kmh Calm Calm Calm SWCalm SW
Wind Gusts 4.6 mph7.4 kmh -- 1.0 mph1.6 kmh
Humidity 94% 45% 68%
Pressure 29.84 in1010.5 mb 29.71 in1006.1 mb -
Precipitation 0.13 in3.3 mm - -
Hour Temp Dew Point Humidity Winds Wind Gusts Pressure Precip Precip Rate Daily Precip Total
12:00 AM 66.8°F19.3°C 59.4°F15.2°C 77% Calm Calm -- 29.73 in1006.8 mb - 0.00 in0.0 mm 0.00 in0.0 mm
12:05 AM 66.6°F19.2°C 59.5°F15.3°C 78% Calm Calm -- 29.73 in1006.8 mb - 0.00 in0.0 mm 0.00 in0.0 mm
12:10 AM 66.4°F19.1°C 59.3°F15.2°C 78% Calm Calm -- 29.73 in1006.8 mb - 0.00 in0.0 mm 0.00 in0.0 mm
12:15 AM 66.3°F19.1°C 59.6°F15.3°C 79% Calm Calm -- 29.73 in1006.8 mb - 0.00 in0.0 mm 0.00 in0.0 mm
12:20 AM 66.2°F19.0°C 59.5°F15.3°C 79% Calm Calm -- 29.73 in1006.8 mb - 0.00 in0.0 mm 0.00 in0.0 mm
12:25 AM 66.0°F18.9°C 59.3°F15.2°C 79% Calm Calm -- 29.73 in1006.8 mb - 0.00 in0.0 mm 0.00 in0.0 mm
12:30 AM 65.8°F18.8°C 59.5°F15.3°C 80% Calm Calm -- 29.73 in1006.8 mb - 0.00 in0.0 mm 0.00 in0.0 mm
12:35 AM 65.4°F18.6°C 59.1°F15.1°C 80% Calm Calm -- 29.73 in1006.8 mb - 0.00 in0.0 mm 0.00 in0.0 mm
12:40 AM 65.0°F18.3°C 58.6°F14.8°C 80% Calm Calm -- 29.73 in1006.8 mb - 0.00 in0.0 mm 0.00 in0.0 mm
12:45 AM 64.7°F18.2°C 58.7°F14.8°C 81% Calm Calm -- 29.73 in1006.8 mb - 0.00 in0.0 mm 0.00 in0.0 mm
12:50 AM 64.4°F18.0°C 58.8°F14.9°C 82% Calm Calm -- 29.73 in1006.8 mb - 0.00 in0.0 mm 0.00 in0.0 mm
12:55 AM 64.2°F17.9°C 58.6°F14.8°C 82% Calm Calm -- 29.73 in1006.8 mb - 0.00 in0.0 mm 0.00 in0.0 mm
01:00 AM 64.1°F17.8°C 58.5°F14.7°C 82% Calm Calm -- 29.73 in1006.8 mb - 0.00 in0.0 mm 0.00 in0.0 mm
01:05 AM 64.1°F17.8°C 58.5°F14.7°C 82% Calm Calm -- 29.73 in1006.8 mb - 0.00 in0.0 mm 0.00 in0.0 mm
01:10 AM 64.2°F17.9°C 58.6°F14.8°C 82% Calm Calm -- 29.73 in1006.8 mb - 0.00 in0.0 mm 0.00 in0.0 mm
01:15 AM 64.5°F18.1°C 58.9°F14.9°C 82% Calm Calm -- 29.74 in1007.1 mb - 0.00 in0.0 mm 0.00 in0.0 mm
01:20 AM 64.6°F18.1°C 58.3°F14.6°C 80% Calm Calm -- 29.74 in1007.1 mb - 0.00 in0.0 mm 0.00 in0.0 mm
01:25 AM 64.7°F18.2°C 58.4°F14.7°C 80% Calm Calm -- 29.74 in1007.1 mb - 0.00 in0.0 mm 0.00 in0.0 mm
01:30 AM 64.9°F18.3°C 58.2°F14.6°C 79% Calm Calm -- 29.74 in1007.1 mb - 0.00 in0.0 mm 0.00 in0.0 mm
01:35 AM 65.0°F18.3°C 58.3°F14.6°C 79% Calm Calm -- 29.74 in1007.1 mb - 0.00 in0.0 mm 0.00 in0.0 mm
01:40 AM 65.0°F18.3°C 58.0°F14.4°C 78% Calm Calm -- 29.74 in1007.1 mb - 0.00 in0.0 mm 0.00 in0.0 mm
01:45 AM 65.1°F18.4°C 58.1°F14.5°C 78% Calm Calm -- 29.74 in1007.1 mb - 0.00 in0.0 mm 0.00 in0.0 mm
01:50 AM 65.5°F18.6°C 58.1°F14.5°C 77% Calm Calm -- 29.74 in1007.1 mb - 0.00 in0.0 mm 0.00 in0.0 mm
01:55 AM 65.8°F18.8°C 59.1°F15.1°C 79% Calm Calm -- 29.74 in1007.1 mb - 0.00 in0.0 mm 0.00 in0.0 mm
02:00 AM 65.9°F18.8°C 59.2°F15.1°C 79% Calm Calm -- 29.74 in1007.1 mb - 0.00 in0.0 mm 0.00 in0.0 mm
02:05 AM 65.9°F18.8°C 59.2°F15.1°C 79% Calm Calm -- 29.74 in1007.1 mb - 0.00 in0.0 mm 0.00 in0.0 mm
02:10 AM 65.9°F18.8°C 59.2°F15.1°C 79% Calm Calm -- 29.74 in1007.1 mb - 0.00 in0.0 mm 0.00 in0.0 mm
02:15 AM 66.0°F18.9°C 59.7°F15.4°C 80% Calm Calm -- 29.74 in1007.1 mb - 0.00 in0.0 mm 0.00 in0.0 mm
02:20 AM 66.1°F18.9°C 59.7°F15.4°C 80% Calm Calm -- 29.74 in1007.1 mb - 0.00 in0.0 mm 0.00 in0.0 mm
02:25 AM 66.0°F18.9°C 59.3°F15.2°C 79% Calm Calm -- 29.74 in1007.1 mb - 0.00 in0.0 mm 0.00 in0.0 mm
02:30 AM 66.0°F18.9°C 59.3°F15.2°C 79% Calm Calm -- 29.74 in1007.1 mb - 0.00 in0.0 mm 0.00 in0.0 mm
02:35 AM 65.9°F18.8°C 59.6°F15.3°C 80% Calm Calm -- 29.74 in1007.1 mb - 0.00 in0.0 mm 0.00 in0.0 mm
02:40 AM 65.9°F18.8°C 59.6°F15.3°C 80% Calm Calm -- 29.75 in1007.5 mb - 0.00 in0.0 mm 0.00 in0.0 mm
02:45 AM 65.9°F18.8°C 59.9°F15.5°C 81% Calm Calm -- 29.75 in1007.5 mb - 0.00 in0.0 mm 0.00 in0.0 mm
02:50 AM 65.9°F18.8°C 59.6°F15.3°C 80% Calm Calm -- 29.75 in1007.5 mb - 0.00 in0.0 mm 0.00 in0.0 mm
02:55 AM 65.8°F18.8°C 59.5°F15.3°C 80% Calm Calm -- 29.74 in1007.1 mb - 0.00 in0.0 mm 0.00 in0.0 mm
03:00 AM 65.8°F18.8°C 59.1°F15.1°C 79% Calm Calm -- 29.74 in1007.1 mb - 0.00 in0.0 mm 0.00 in0.0 mm
03:05 AM 65.8°F18.8°C 59.1°F15.1°C 79% Calm Calm -- 29.74 in1007.1 mb - 0.00 in0.0 mm 0.00 in0.0 mm
03:10 AM 65.9°F18.8°C 58.8°F14.9°C 78% Calm Calm -- 29.74 in1007.1 mb - 0.00 in0.0 mm 0.00 in0.0 mm
03:15 AM 66.0°F18.9°C 58.6°F14.8°C 77% Calm Calm -- 29.74 in1007.1 mb - 0.00 in0.0 mm 0.00 in0.0 mm
03:20 AM 66.2°F19.0°C 58.8°F14.9°C 77% Calm Calm -- 29.73 in1006.8 mb - 0.00 in0.0 mm 0.00 in0.0 mm
03:25 AM 66.2°F19.0°C 58.8°F14.9°C 77% Calm Calm -- 29.74 in1007.1 mb - 0.00 in0.0 mm 0.00 in0.0 mm
03:30 AM 66.1°F18.9°C 59.1°F15.1°C 78% Calm Calm -- 29.74 in1007.1 mb - 0.00 in0.0 mm 0.00 in0.0 mm
03:35 AM 66.0°F18.9°C 59.3°F15.2°C 79% Calm Calm -- 29.74 in1007.1 mb - 0.00 in0.0 mm 0.00 in0.0 mm
03:40 AM 65.7°F18.7°C 59.0°F15.0°C 79% Calm Calm -- 29.74 in1007.1 mb - 0.00 in0.0 mm 0.00 in0.0 mm
03:45 AM 65.5°F18.6°C 58.8°F14.9°C 79% Calm Calm -- 29.73 in1006.8 mb - 0.00 in0.0 mm 0.00 in0.0 mm
03:50 AM 65.6°F18.7°C 58.9°F14.9°C 79% Calm Calm -- 29.74 in1007.1 mb - 0.00 in0.0 mm 0.00 in0.0 mm
03:55 AM 65.8°F18.8°C 59.5°F15.3°C 80% Calm Calm -- 29.74 in1007.1 mb - 0.00 in0.0 mm 0.00 in0.0 mm
04:00 AM 65.7°F18.7°C 59.4°F15.2°C 80% Calm Calm -- 29.74 in1007.1 mb - 0.00 in0.0 mm 0.00 in0.0 mm
04:05 AM 65.6°F18.7°C 59.6°F15.3°C 81% Calm Calm -- 29.74 in1007.1 mb - 0.00 in0.0 mm 0.00 in0.0 mm
04:10 AM 65.6°F18.7°C 59.6°F15.3°C 81% Calm Calm -- 29.73 in1006.8 mb - 0.00 in0.0 mm 0.00 in0.0 mm
04:15 AM 65.7°F18.7°C 60.1°F15.6°C 82% Calm Calm -- 29.73 in1006.8 mb - 0.00 in0.0 mm 0.00 in0.0 mm
04:20 AM 65.7°F18.7°C 59.7°F15.4°C 81% Calm Calm -- 29.73 in1006.8 mb - 0.00 in0.0 mm 0.00 in0.0 mm
04:25 AM 66.0°F18.9°C 60.0°F15.6°C 81% Calm Calm -- 29.73 in1006.8 mb - 0.00 in0.0 mm 0.00 in0.0 mm
04:30 AM 66.1°F18.9°C 60.1°F15.6°C 81% Calm Calm -- 29.73 in1006.8 mb - 0.00 in0.0 mm 0.00 in0.0 mm
04:35 AM 66.1°F18.9°C 59.7°F15.4°C 80% Calm Calm -- 29.73 in1006.8 mb - 0.00 in0.0 mm 0.00 in0.0 mm
04:40 AM 66.2°F19.0°C 59.5°F15.3°C 79% Calm Calm -- 29.73 in1006.8 mb - 0.00 in0.0 mm 0.00 in0.0 mm
04:45 AM 66.4°F19.1°C 60.0°F15.6°C 80% Calm Calm -- 29.73 in1006.8 mb - 0.00 in0.0 mm 0.00 in0.0 mm
04:50 AM 66.4°F19.1°C 61.1°F16.2°C 83% Calm Calm -- 29.73 in1006.8 mb - 0.00 in0.0 mm 0.00 in0.0 mm
04:55 AM 66.1°F18.9°C 61.2°F16.2°C 84% Calm Calm -- 29.73 in1006.8 mb - 0.00 in0.0 mm 0.00 in0.0 mm
05:00 AM 65.9°F18.8°C 61.3°F16.3°C 85% Calm Calm -- 29.73 in1006.8 mb - 0.00 in0.0 mm 0.00 in0.0 mm
05:05 AM 65.8°F18.8°C 61.8°F16.6°C 87% Calm Calm -- 29.74 in1007.1 mb - 0.00 in0.0 mm 0.00 in0.0 mm
05:10 AM 65.6°F18.7°C 61.3°F16.3°C 86% Calm Calm -- 29.74 in1007.1 mb - 0.00 in0.0 mm 0.00 in0.0 mm
05:15 AM 65.5°F18.6°C 61.2°F16.2°C 86% Calm Calm -- 29.74 in1007.1 mb - 0.00 in0.0 mm 0.00 in0.0 mm
05:20 AM 65.3°F18.5°C 61.0°F16.1°C 86% Calm Calm -- 29.74 in1007.1 mb - 0.00 in0.0 mm 0.00 in0.0 mm
05:25 AM 65.2°F18.4°C 60.9°F16.1°C 86% Calm Calm -- 29.74 in1007.1 mb - 0.00 in0.0 mm 0.00 in0.0 mm
05:30 AM 65.1°F18.4°C 60.8°F16.0°C 86% Calm Calm -- 29.75 in1007.5 mb - 0.00 in0.0 mm 0.00 in0.0 mm
05:35 AM 65.0°F18.3°C 60.7°F15.9°C 86% Calm Calm -- 29.75 in1007.5 mb - 0.02 in0.5 mm 0.02 in0.5 mm
05:40 AM 64.8°F18.2°C 61.1°F16.2°C 88% Calm Calm -- 29.75 in1007.5 mb - 0.11 in2.8 mm 0.11 in2.8 mm
05:45 AM 64.3°F17.9°C 61.0°F16.1°C 89% Calm Calm -- 29.76 in1007.8 mb - 0.11 in2.8 mm 0.11 in2.8 mm
05:50 AM 64.0°F17.8°C 60.7°F15.9°C 89% Calm Calm 1.2 mph1.9 kmh 29.76 in1007.8 mb - 0.12 in3.0 mm 0.12 in3.0 mm
05:55 AM 63.8°F17.7°C 60.8°F16.0°C 90% Calm Calm 1.2 mph1.9 kmh 29.76 in1007.8 mb - 0.12 in3.0 mm 0.12 in3.0 mm
06:00 AM 63.8°F17.7°C 60.8°F16.0°C 90% Calm Calm -- 29.76 in1007.8 mb - 0.12 in3.0 mm 0.12 in3.0 mm
06:05 AM 63.7°F17.6°C 61.0°F16.1°C 91% Calm Calm -- 29.76 in1007.8 mb - 0.12 in3.0 mm 0.12 in3.0 mm
06:10 AM 63.7°F17.6°C 61.0°F16.1°C 91% Calm Calm -- 29.76 in1007.8 mb - 0.12 in3.0 mm 0.12 in3.0 mm
06:15 AM 63.7°F17.6°C 61.0°F16.1°C 91% Calm Calm -- 29.76 in1007.8 mb - 0.12 in3.0 mm 0.12 in3.0 mm
06:20 AM 63.6°F17.6°C 60.9°F16.1°C 91% Calm Calm -- 29.76 in1007.8 mb - 0.12 in3.0 mm 0.12 in3.0 mm
06:25 AM 63.7°F17.6°C 61.0°F16.1°C 91% Calm Calm -- 29.76 in1007.8 mb - 0.12 in3.0 mm 0.12 in3.0 mm
06:30 AM 63.6°F17.6°C 60.9°F16.1°C 91% Calm Calm -- 29.76 in1007.8 mb - 0.12 in3.0 mm 0.12 in3.0 mm
06:35 AM 63.7°F17.6°C 61.3°F16.3°C 92% Calm Calm 1.2 mph1.9 kmh 29.75 in1007.5 mb - 0.12 in3.0 mm 0.13 in3.3 mm
06:40 AM 63.8°F17.7°C 61.4°F16.3°C 92% Calm Calm -- 29.75 in1007.5 mb - 0.02 in0.5 mm 0.13 in3.3 mm
06:45 AM 63.8°F17.7°C 61.5°F16.4°C 92% Calm Calm -- 29.75 in1007.5 mb - 0.02 in0.5 mm 0.13 in3.3 mm
06:50 AM 63.8°F17.7°C 61.4°F16.3°C 92% Calm Calm -- 29.75 in1007.5 mb - 0.01 in0.3 mm 0.13 in3.3 mm
06:55 AM 63.8°F17.7°C 61.4°F16.3°C 92% Calm Calm -- 29.75 in1007.5 mb - 0.01 in0.3 mm 0.13 in3.3 mm
07:00 AM 63.8°F17.7°C 61.5°F16.4°C 92% Calm Calm -- 29.76 in1007.8 mb - 0.01 in0.3 mm 0.13 in3.3 mm
07:05 AM 63.9°F17.7°C 61.5°F16.4°C 92% Calm Calm -- 29.76 in1007.8 mb - 0.01 in0.3 mm 0.13 in3.3 mm
07:10 AM 63.9°F17.7°C 61.5°F16.4°C 92% Calm Calm -- 29.77 in1008.1 mb - 0.01 in0.3 mm 0.13 in3.3 mm
07:15 AM 63.9°F17.7°C 61.5°F16.4°C 92% Calm Calm -- 29.77 in1008.1 mb - 0.01 in0.3 mm 0.13 in3.3 mm
07:20 AM 63.8°F17.7°C 61.4°F16.3°C 92% Calm Calm -- 29.77 in1008.1 mb - 0.01 in0.3 mm 0.13 in3.3 mm
07:25 AM 63.8°F17.7°C 61.8°F16.6°C 93% Calm Calm -- 29.77 in1008.1 mb - 0.01 in0.3 mm 0.13 in3.3 mm
07:30 AM 63.9°F17.7°C 61.8°F16.6°C 93% Calm Calm -- 29.77 in1008.1 mb - 0.01 in0.3 mm 0.13 in3.3 mm
07:35 AM 64.1°F17.8°C 62.0°F16.7°C 93% Calm Calm -- 29.77 in1008.1 mb - 0.00 in0.0 mm 0.13 in3.3 mm
07:40 AM 64.3°F17.9°C 62.5°F16.9°C 94% Calm Calm -- 29.77 in1008.1 mb - 0.00 in0.0 mm 0.13 in3.3 mm
07:45 AM 64.4°F18.0°C 62.3°F16.8°C 93% Calm Calm -- 29.77 in1008.1 mb - 0.00 in0.0 mm 0.13 in3.3 mm
07:50 AM 64.4°F18.0°C 62.3°F16.8°C 93% Calm Calm -- 29.78 in1008.5 mb - 0.00 in0.0 mm 0.13 in3.3 mm
07:55 AM 64.4°F18.0°C 62.3°F16.8°C 93% Calm Calm -- 29.78 in1008.5 mb - 0.00 in0.0 mm 0.13 in3.3 mm
08:00 AM 64.5°F18.1°C 62.4°F16.9°C 93% Calm Calm -- 29.78 in1008.5 mb - 0.00 in0.0 mm 0.13 in3.3 mm
08:05 AM 64.7°F18.2°C 62.6°F17.0°C 93% Calm Calm -- 29.78 in1008.5 mb - 0.00 in0.0 mm 0.13 in3.3 mm
08:10 AM 64.6°F18.1°C 62.5°F16.9°C 93% Calm Calm 1.2 mph1.9 kmh 29.78 in1008.5 mb - 0.00 in0.0 mm 0.13 in3.3 mm
08:15 AM 64.7°F18.2°C 62.6°F17.0°C 93% Calm Calm -- 29.78 in1008.5 mb - 0.00 in0.0 mm 0.13 in3.3 mm
08:20 AM 64.9°F18.3°C 62.8°F17.1°C 93% Calm Calm -- 29.78 in1008.5 mb - 0.00 in0.0 mm 0.13 in3.3 mm
08:25 AM 65.0°F18.3°C 62.9°F17.2°C 93% Calm Calm -- 29.79 in1008.8 mb - 0.00 in0.0 mm 0.13 in3.3 mm
08:30 AM 65.1°F18.4°C 63.0°F17.2°C 93% Calm Calm -- 29.79 in1008.8 mb - 0.00 in0.0 mm 0.13 in3.3 mm
08:35 AM 65.0°F18.3°C 62.9°F17.2°C 93% Calm Calm 1.2 mph1.9 kmh 29.78 in1008.5 mb - 0.00 in0.0 mm 0.13 in3.3 mm
08:40 AM 65.0°F18.3°C 62.9°F17.2°C 93% Calm Calm -- 29.78 in1008.5 mb - 0.00 in0.0 mm 0.13 in3.3 mm
08:45 AM 65.1°F18.4°C 63.0°F17.2°C 93% Calm Calm 1.2 mph1.9 kmh 29.78 in1008.5 mb - 0.00 in0.0 mm 0.13 in3.3 mm
08:50 AM 65.3°F18.5°C 62.9°F17.2°C 92% Calm Calm 1.2 mph1.9 kmh 29.79 in1008.8 mb - 0.00 in0.0 mm 0.13 in3.3 mm
08:55 AM 65.5°F18.6°C 63.1°F17.3°C 92% Calm Calm -- 29.79 in1008.8 mb - 0.00 in0.0 mm 0.13 in3.3 mm
09:00 AM 65.7°F18.7°C 63.3°F17.4°C 92% Calm Calm -- 29.79 in1008.8 mb - 0.00 in0.0 mm 0.13 in3.3 mm
09:05 AM 66.0°F18.9°C 63.0°F17.2°C 90% Calm Calm -- 29.79 in1008.8 mb - 0.00 in0.0 mm 0.13 in3.3 mm
09:10 AM 66.9°F19.4°C 63.8°F17.7°C 90% Calm Calm 1.2 mph1.9 kmh 29.79 in1008.8 mb - 0.00 in0.0 mm 0.13 in3.3 mm
09:15 AM 67.9°F19.9°C 64.5°F18.1°C 89% Calm Calm -- 29.79 in1008.8 mb - 0.00 in0.0 mm 0.13 in3.3 mm
09:20 AM 69.2°F20.7°C 65.8°F18.8°C 89% Calm Calm -- 29.79 in1008.8 mb - 0.00 in0.0 mm 0.13 in3.3 mm
09:25 AM 69.9°F21.1°C 64.8°F18.2°C 84% Calm Calm -- 29.79 in1008.8 mb - 0.00 in0.0 mm 0.13 in3.3 mm
09:30 AM 70.1°F21.2°C 64.7°F18.2°C 83% Calm Calm -- 29.79 in1008.8 mb - 0.00 in0.0 mm 0.13 in3.3 mm
09:35 AM 70.0°F21.1°C 65.3°F18.5°C 85% Calm Calm -- 29.79 in1008.8 mb - 0.00 in0.0 mm 0.13 in3.3 mm
09:40 AM 70.0°F21.1°C 64.9°F18.3°C 84% Calm Calm 1.2 mph1.9 kmh 29.79 in1008.8 mb - 0.00 in0.0 mm 0.13 in3.3 mm
09:45 AM 69.8°F21.0°C 64.7°F18.2°C 84% Calm Calm -- 29.79 in1008.8 mb - 0.00 in0.0 mm 0.13 in3.3 mm
09:50 AM 70.1°F21.2°C 65.7°F18.7°C 86% Calm Calm -- 29.79 in1008.8 mb - 0.00 in0.0 mm 0.13 in3.3 mm
09:55 AM 70.5°F21.4°C 65.8°F18.8°C 85% Calm Calm -- 29.79 in1008.8 mb - 0.00 in0.0 mm 0.13 in3.3 mm
10:00 AM 70.6°F21.4°C 65.2°F18.4°C 83% Calm Calm -- 29.78 in1008.5 mb - 0.00 in0.0 mm 0.13 in3.3 mm
10:05 AM 71.0°F21.7°C 65.2°F18.4°C 82% Calm Calm -- 29.78 in1008.5 mb - 0.00 in0.0 mm 0.13 in3.3 mm
10:10 AM 71.9°F22.2°C 65.4°F18.6°C 80% Calm Calm 1.2 mph1.9 kmh 29.79 in1008.8 mb - 0.00 in0.0 mm 0.13 in3.3 mm
10:15 AM 73.0°F22.8°C 66.1°F18.9°C 79% Calm Calm -- 29.78 in1008.5 mb - 0.00 in0.0 mm 0.13 in3.3 mm
10:20 AM 73.9°F23.3°C 66.6°F19.2°C 78% Calm Calm 1.2 mph1.9 kmh 29.78 in1008.5 mb - 0.00 in0.0 mm 0.13 in3.3 mm
10:25 AM 75.1°F23.9°C 67.4°F19.7°C 77% Calm Calm -- 29.78 in1008.5 mb - 0.00 in0.0 mm 0.13 in3.3 mm
10:30 AM 75.9°F24.4°C 67.8°F19.9°C 76% Calm Calm -- 29.77 in1008.1 mb - 0.00 in0.0 mm 0.13 in3.3 mm
10:35 AM 76.7°F24.8°C 67.8°F19.9°C 74% Calm Calm 1.2 mph1.9 kmh 29.77 in1008.1 mb - 0.00 in0.0 mm 0.13 in3.3 mm
10:40 AM 77.2°F25.1°C 66.7°F19.3°C 70% Calm Calm 1.2 mph1.9 kmh 29.77 in1008.1 mb - 0.00 in0.0 mm 0.13 in3.3 mm
10:45 AM 77.6°F25.3°C 66.6°F19.2°C 69% Calm Calm -- 29.77 in1008.1 mb - 0.00 in0.0 mm 0.13 in3.3 mm
10:50 AM 77.8°F25.4°C 66.0°F18.9°C 67% Calm Calm -- 29.77 in1008.1 mb - 0.00 in0.0 mm 0.13 in3.3 mm
10:55 AM 78.5°F25.8°C 66.2°F19.0°C 66% Calm Calm 1.2 mph1.9 kmh 29.77 in1008.1 mb - 0.00 in0.0 mm 0.13 in3.3 mm
11:00 AM 79.1°F26.2°C 66.8°F19.3°C 66% Calm Calm -- 29.77 in1008.1 mb - 0.00 in0.0 mm 0.13 in3.3 mm
11:05 AM 80.0°F26.7°C 66.7°F19.3°C 64% Calm Calm -- 29.77 in1008.1 mb - 0.00 in0.0 mm 0.13 in3.3 mm
11:10 AM 80.9°F27.2°C 67.6°F19.8°C 64% Calm Calm 1.2 mph1.9 kmh 29.77 in1008.1 mb - 0.00 in0.0 mm 0.13 in3.3 mm
11:15 AM 81.4°F27.4°C 67.1°F19.5°C 62% Calm Calm 1.2 mph1.9 kmh 29.77 in1008.1 mb - 0.00 in0.0 mm 0.13 in3.3 mm
11:20 AM 81.6°F27.6°C 66.8°F19.3°C 61% Calm Calm 2.3 mph3.7 kmh 29.77 in1008.1 mb - 0.00 in0.0 mm 0.13 in3.3 mm
11:25 AM 81.8°F27.7°C 67.5°F19.7°C 62% 1.2 mph SSE1.9 kmh SSE 2.3 mph3.7 kmh 29.77 in1008.1 mb - 0.00 in0.0 mm 0.13 in3.3 mm
11:30 AM 82.3°F27.9°C 67.0°F19.4°C 60% Calm Calm 1.2 mph1.9 kmh 29.77 in1008.1 mb - 0.00 in0.0 mm 0.13 in3.3 mm
11:35 AM 82.9°F28.3°C 67.1°F19.5°C 59% Calm Calm 1.2 mph1.9 kmh 29.77 in1008.1 mb - 0.00 in0.0 mm 0.13 in3.3 mm
11:40 AM 83.2°F28.4°C 65.4°F18.6°C 55% 1.2 mph NW1.9 kmh NW 2.3 mph3.7 kmh 29.76 in1007.8 mb - 0.00 in0.0 mm 0.13 in3.3 mm
11:45 AM 83.0°F28.3°C 65.2°F18.4°C 55% Calm Calm -- 29.76 in1007.8 mb - 0.00 in0.0 mm 0.13 in3.3 mm
11:50 AM 83.3°F28.5°C 66.0°F18.9°C 56% Calm Calm 1.2 mph1.9 kmh 29.76 in1007.8 mb - 0.00 in0.0 mm 0.13 in3.3 mm
11:55 AM 83.8°F28.8°C 66.4°F19.1°C 56% Calm Calm 1.2 mph1.9 kmh 29.76 in1007.8 mb - 0.00 in0.0 mm 0.13 in3.3 mm
12:00 PM 83.9°F28.8°C 65.5°F18.6°C 54% Calm Calm 1.2 mph1.9 kmh 29.76 in1007.8 mb - 0.00 in0.0 mm 0.13 in3.3 mm
12:05 PM 84.4°F29.1°C 64.8°F18.2°C 52% Calm Calm 1.2 mph1.9 kmh 29.76 in1007.8 mb - 0.00 in0.0 mm 0.13 in3.3 mm
12:10 PM 84.6°F29.2°C 65.1°F18.4°C 52% 1.2 mph SSE1.9 kmh SSE 2.3 mph3.7 kmh 29.76 in1007.8 mb - 0.00 in0.0 mm 0.13 in3.3 mm
12:15 PM 85.0°F29.4°C 64.8°F18.2°C 51% Calm Calm 1.2 mph1.9 kmh 29.75 in1007.5 mb - 0.00 in0.0 mm 0.13 in3.3 mm
12:20 PM 85.4°F29.7°C 66.9°F19.4°C 54% Calm Calm 1.2 mph1.9 kmh 29.75 in1007.5 mb - 0.00 in0.0 mm 0.13 in3.3 mm
12:25 PM 86.1°F30.1°C 65.3°F18.5°C 50% Calm Calm 1.2 mph1.9 kmh 29.75 in1007.5 mb - 0.00 in0.0 mm 0.13 in3.3 mm
12:30 PM 86.7°F30.4°C 64.6°F18.1°C 48% Calm Calm 1.2 mph1.9 kmh 29.75 in1007.5 mb - 0.00 in0.0 mm 0.13 in3.3 mm
12:35 PM 86.7°F30.4°C 64.1°F17.8°C 47% 1.2 mph NW1.9 kmh NW 3.5 mph5.6 kmh 29.75 in1007.5 mb - 0.00 in0.0 mm 0.13 in3.3 mm
12:40 PM 86.2°F30.1°C 64.8°F18.2°C 49% 1.2 mph E1.9 kmh E 1.2 mph1.9 kmh 29.75 in1007.5 mb - 0.00 in0.0 mm 0.13 in3.3 mm
12:45 PM 86.3°F30.2°C 64.9°F18.3°C 49% Calm Calm 1.2 mph1.9 kmh 29.75 in1007.5 mb - 0.00 in0.0 mm 0.13 in3.3 mm
12:50 PM 86.3°F30.2°C 63.7°F17.6°C 47% Calm Calm 2.3 mph3.7 kmh 29.75 in1007.5 mb - 0.00 in0.0 mm 0.13 in3.3 mm
12:55 PM 85.7°F29.8°C 64.3°F17.9°C 49% Calm Calm 1.2 mph1.9 kmh 29.75 in1007.5 mb - 0.00 in0.0 mm 0.13 in3.3 mm
01:00 PM 85.5°F29.7°C 63.6°F17.6°C 48% Calm Calm 1.2 mph1.9 kmh 29.75 in1007.5 mb - 0.00 in0.0 mm 0.13 in3.3 mm
01:05 PM 85.7°F29.8°C 63.8°F17.7°C 48% 1.2 mph NW1.9 kmh NW 2.3 mph3.7 kmh 29.75 in1007.5 mb - 0.00 in0.0 mm 0.13 in3.3 mm
01:10 PM 85.8°F29.9°C 64.4°F18.0°C 49% Calm Calm 1.2 mph1.9 kmh 29.74 in1007.1 mb - 0.00 in0.0 mm 0.13 in3.3 mm
01:15 PM 85.7°F29.8°C 63.7°F17.6°C 48% Calm Calm 1.2 mph1.9 kmh 29.74 in1007.1 mb - 0.00 in0.0 mm 0.13 in3.3 mm
01:20 PM 85.6°F29.8°C 63.7°F17.6°C 48% 1.2 mph NW1.9 kmh NW 1.2 mph1.9 kmh 29.74 in1007.1 mb - 0.00 in0.0 mm 0.13 in3.3 mm
01:25 PM 85.7°F29.8°C 64.4°F18.0°C 49% Calm Calm 1.2 mph1.9 kmh 29.73 in1006.8 mb - 0.00 in0.0 mm 0.13 in3.3 mm
01:30 PM 86.0°F30.0°C 64.6°F18.1°C 49% 1.2 mph NW1.9 kmh NW 3.5 mph5.6 kmh 29.73 in1006.8 mb - 0.00 in0.0 mm 0.13 in3.3 mm
01:35 PM 86.1°F30.1°C 63.5°F17.5°C 47% Calm Calm 1.2 mph1.9 kmh 29.73 in1006.8 mb - 0.00 in0.0 mm 0.13 in3.3 mm
01:40 PM 86.2°F30.1°C 63.0°F17.2°C 46% Calm Calm 1.2 mph1.9 kmh 29.73 in1006.8 mb - 0.00 in0.0 mm 0.13 in3.3 mm
01:45 PM 86.5°F30.3°C 64.5°F18.1°C 48% Calm Calm 1.2 mph1.9 kmh 29.73 in1006.8 mb - 0.00 in0.0 mm 0.13 in3.3 mm
01:50 PM 86.6°F30.3°C 63.9°F17.7°C 47% 1.2 mph NW1.9 kmh NW 1.2 mph1.9 kmh 29.73 in1006.8 mb - 0.00 in0.0 mm 0.13 in3.3 mm
01:55 PM 86.6°F30.3°C 64.0°F17.8°C 47% 1.2 mph NW1.9 kmh NW 3.5 mph5.6 kmh 29.72 in1006.4 mb - 0.00 in0.0 mm 0.13 in3.3 mm
02:00 PM 86.9°F30.5°C 64.2°F17.9°C 47% Calm Calm 3.5 mph5.6 kmh 29.73 in1006.8 mb - 0.00 in0.0 mm 0.13 in3.3 mm
02:05 PM 87.0°F30.6°C 63.7°F17.6°C 46% 2.3 mph NW3.7 kmh NW 3.5 mph5.6 kmh 29.72 in1006.4 mb - 0.00 in0.0 mm 0.13 in3.3 mm
02:10 PM 86.8°F30.4°C 64.8°F18.2°C 48% 2.3 mph NW3.7 kmh NW 3.5 mph5.6 kmh 29.73 in1006.8 mb - 0.00 in0.0 mm 0.13 in3.3 mm
02:15 PM 86.7°F30.4°C 65.3°F18.5°C 49% 2.3 mph NW3.7 kmh NW 3.5 mph5.6 kmh 29.72 in1006.4 mb - 0.00 in0.0 mm 0.13 in3.3 mm
02:20 PM 86.5°F30.3°C 64.5°F18.1°C 48% 3.5 mph NNW5.6 kmh NNW 4.6 mph7.4 kmh 29.72 in1006.4 mb - 0.00 in0.0 mm 0.13 in3.3 mm
02:25 PM 86.3°F30.2°C 64.3°F17.9°C 48% 3.5 mph NW5.6 kmh NW 4.6 mph7.4 kmh 29.72 in1006.4 mb - 0.00 in0.0 mm 0.13 in3.3 mm
02:30 PM 86.4°F30.2°C 64.4°F18.0°C 48% 1.2 mph WNW1.9 kmh WNW 1.2 mph1.9 kmh 29.72 in1006.4 mb - 0.00 in0.0 mm 0.13 in3.3 mm
02:35 PM 86.5°F30.3°C 65.1°F18.4°C 49% 1.2 mph NW1.9 kmh NW 3.5 mph5.6 kmh 29.72 in1006.4 mb - 0.00 in0.0 mm 0.13 in3.3 mm
02:40 PM 86.6°F30.3°C 64.6°F18.1°C 48% 2.3 mph NW3.7 kmh NW 3.5 mph5.6 kmh 29.72 in1006.4 mb - 0.00 in0.0 mm 0.13 in3.3 mm
02:45 PM 86.4°F30.2°C 64.4°F18.0°C 48% 1.2 mph NW1.9 kmh NW 2.3 mph3.7 kmh 29.72 in1006.4 mb - 0.00 in0.0 mm 0.13 in3.3 mm
02:50 PM 86.7°F30.4°C 64.7°F18.2°C 48% 1.2 mph NW1.9 kmh NW 1.2 mph1.9 kmh 29.72 in1006.4 mb - 0.00 in0.0 mm 0.13 in3.3 mm
02:55 PM 87.0°F30.6°C 63.7°F17.6°C 46% 1.2 mph NW1.9 kmh NW 3.5 mph5.6 kmh 29.72 in1006.4 mb - 0.00 in0.0 mm 0.13 in3.3 mm
03:00 PM 87.0°F30.6°C 64.9°F18.3°C 48% 1.2 mph NW1.9 kmh NW 3.5 mph5.6 kmh 29.72 in1006.4 mb - 0.00 in0.0 mm 0.13 in3.3 mm
03:05 PM 86.7°F30.4°C 63.4°F17.4°C 46% 2.3 mph NW3.7 kmh NW 4.6 mph7.4 kmh 29.72 in1006.4 mb - 0.00 in0.0 mm 0.13 in3.3 mm
03:10 PM 86.2°F30.1°C 64.2°F17.9°C 48% 2.3 mph NW3.7 kmh NW 2.3 mph3.7 kmh 29.72 in1006.4 mb - 0.00 in0.0 mm 0.13 in3.3 mm
03:15 PM 86.2°F30.1°C 64.2°F17.9°C 48% 1.2 mph WNW1.9 kmh WNW 2.3 mph3.7 kmh 29.72 in1006.4 mb - 0.00 in0.0 mm 0.13 in3.3 mm
03:20 PM 85.9°F29.9°C 63.4°F17.4°C 47% 1.2 mph NW1.9 kmh NW 3.5 mph5.6 kmh 29.72 in1006.4 mb - 0.00 in0.0 mm 0.13 in3.3 mm
03:25 PM 86.1°F30.1°C 63.5°F17.5°C 47% 1.2 mph WNW1.9 kmh WNW 3.5 mph5.6 kmh 29.72 in1006.4 mb - 0.00 in0.0 mm 0.13 in3.3 mm
03:30 PM 86.1°F30.1°C 63.5°F17.5°C 47% 1.2 mph WNW1.9 kmh WNW 2.3 mph3.7 kmh 29.72 in1006.4 mb - 0.00 in0.0 mm 0.13 in3.3 mm
03:35 PM 86.4°F30.2°C 63.8°F17.7°C 47% 1.2 mph NW1.9 kmh NW 3.5 mph5.6 kmh 29.71 in1006.1 mb - 0.00 in0.0 mm 0.13 in3.3 mm
03:40 PM 86.6°F30.3°C 63.3°F17.4°C 46% Calm Calm 2.3 mph3.7 kmh 29.71 in1006.1 mb - 0.00 in0.0 mm 0.13 in3.3 mm
03:45 PM 86.5°F30.3°C 63.9°F17.7°C 47% 1.2 mph W1.9 kmh W 3.5 mph5.6 kmh 29.72 in1006.4 mb - 0.00 in0.0 mm 0.13 in3.3 mm
03:50 PM 86.0°F30.0°C 62.8°F17.1°C 46% 1.2 mph NW1.9 kmh NW 2.3 mph3.7 kmh 29.72 in1006.4 mb - 0.00 in0.0 mm 0.13 in3.3 mm
03:55 PM 85.9°F29.9°C 63.3°F17.4°C 47% 2.3 mph NW3.7 kmh NW 3.5 mph5.6 kmh 29.72 in1006.4 mb - 0.00 in0.0 mm 0.13 in3.3 mm
04:00 PM 86.0°F30.0°C 62.8°F17.1°C 46% Calm Calm 2.3 mph3.7 kmh 29.72 in1006.4 mb - 0.00 in0.0 mm 0.13 in3.3 mm
04:05 PM 85.3°F29.6°C 62.2°F16.8°C 46% 1.2 mph NW1.9 kmh NW 2.3 mph3.7 kmh 29.72 in1006.4 mb - 0.00 in0.0 mm 0.13 in3.3 mm
04:10 PM 84.9°F29.4°C 62.4°F16.9°C 47% Calm Calm 1.2 mph1.9 kmh 29.72 in1006.4 mb - 0.00 in0.0 mm 0.13 in3.3 mm
04:15 PM 84.4°F29.1°C 61.9°F16.6°C 47% 1.2 mph NW1.9 kmh NW 2.3 mph3.7 kmh 29.72 in1006.4 mb - 0.00 in0.0 mm 0.13 in3.3 mm
04:20 PM 84.3°F29.1°C 62.5°F16.9°C 48% 1.2 mph NNW1.9 kmh NNW 3.5 mph5.6 kmh 29.72 in1006.4 mb - 0.00 in0.0 mm 0.13 in3.3 mm
04:25 PM 84.6°F29.2°C 62.1°F16.7°C 47% 1.2 mph NW1.9 kmh NW 2.3 mph3.7 kmh 29.72 in1006.4 mb - 0.00 in0.0 mm 0.13 in3.3 mm
04:30 PM 84.7°F29.3°C 61.6°F16.4°C 46% 1.2 mph NW1.9 kmh NW 3.5 mph5.6 kmh 29.72 in1006.4 mb - 0.00 in0.0 mm 0.13 in3.3 mm
04:35 PM 84.5°F29.2°C 62.1°F16.7°C 47% Calm Calm 1.2 mph1.9 kmh 29.72 in1006.4 mb - 0.00 in0.0 mm 0.13 in3.3 mm
04:40 PM 84.0°F28.9°C 61.6°F16.4°C 47% 1.2 mph NW1.9 kmh NW 1.2 mph1.9 kmh 29.72 in1006.4 mb - 0.00 in0.0 mm 0.13 in3.3 mm
04:45 PM 83.6°F28.7°C 61.2°F16.2°C 47% 1.2 mph NW1.9 kmh NW 2.3 mph3.7 kmh 29.72 in1006.4 mb - 0.00 in0.0 mm 0.13 in3.3 mm
04:50 PM 83.3°F28.5°C 61.6°F16.4°C 48% Calm Calm 2.3 mph3.7 kmh 29.72 in1006.4 mb - 0.00 in0.0 mm 0.13 in3.3 mm
04:55 PM 83.1°F28.4°C 62.0°F16.7°C 49% Calm Calm 1.2 mph1.9 kmh 29.72 in1006.4 mb - 0.00 in0.0 mm 0.13 in3.3 mm
05:00 PM 82.9°F28.3°C 61.2°F16.2°C 48% 1.2 mph NW1.9 kmh NW 2.3 mph3.7 kmh 29.72 in1006.4 mb - 0.00 in0.0 mm 0.13 in3.3 mm
05:05 PM 82.8°F28.2°C 61.1°F16.2°C 48% 1.2 mph NNW1.9 kmh NNW 2.3 mph3.7 kmh 29.72 in1006.4 mb - 0.00 in0.0 mm 0.13 in3.3 mm
05:10 PM 82.9°F28.3°C 60.6°F15.9°C 47% 1.2 mph NW1.9 kmh NW 3.5 mph5.6 kmh 29.72 in1006.4 mb - 0.00 in0.0 mm 0.13 in3.3 mm
05:15 PM 83.2°F28.4°C 60.2°F15.7°C 46% 1.2 mph NW1.9 kmh NW 2.3 mph3.7 kmh 29.72 in1006.4 mb - 0.00 in0.0 mm 0.13 in3.3 mm
05:20 PM 83.3°F28.5°C 60.4°F15.8°C 46% 1.2 mph NW1.9 kmh NW 2.3 mph3.7 kmh 29.72 in1006.4 mb - 0.00 in0.0 mm 0.13 in3.3 mm
05:25 PM 83.5°F28.6°C 61.1°F16.2°C 47% 1.2 mph NW1.9 kmh NW -- 29.72 in1006.4 mb - 0.00 in0.0 mm 0.13 in3.3 mm
05:30 PM 83.5°F28.6°C 59.9°F15.5°C 45% 1.2 mph NW1.9 kmh NW 3.5 mph5.6 kmh 29.72 in1006.4 mb - 0.00 in0.0 mm 0.13 in3.3 mm
05:35 PM 83.5°F28.6°C 60.5°F15.8°C 46% 1.2 mph NW1.9 kmh NW 3.5 mph5.6 kmh 29.72 in1006.4 mb - 0.00 in0.0 mm 0.13 in3.3 mm
05:40 PM 83.4°F28.6°C 61.0°F16.1°C 47% Calm Calm 1.2 mph1.9 kmh 29.72 in1006.4 mb - 0.00 in0.0 mm 0.13 in3.3 mm
05:45 PM 83.2°F28.4°C 60.8°F16.0°C 47% Calm Calm 1.2 mph1.9 kmh 29.72 in1006.4 mb - 0.00 in0.0 mm 0.13 in3.3 mm
05:50 PM 82.8°F28.2°C 60.5°F15.8°C 47% Calm Calm 1.2 mph1.9 kmh 29.72 in1006.4 mb - 0.00 in0.0 mm 0.13 in3.3 mm
05:55 PM 82.7°F28.2°C 61.0°F16.1°C 48% Calm Calm 1.2 mph1.9 kmh 29.72 in1006.4 mb - 0.00 in0.0 mm 0.13 in3.3 mm
06:00 PM 82.5°F28.1°C 60.8°F16.0°C 48% Calm Calm -- 29.72 in1006.4 mb - 0.00 in0.0 mm 0.13 in3.3 mm
06:05 PM 82.3°F27.9°C 60.6°F15.9°C 48% Calm Calm -- 29.72 in1006.4 mb - 0.00 in0.0 mm 0.13 in3.3 mm
06:10 PM 81.9°F27.7°C 61.5°F16.4°C 50% Calm Calm -- 29.72 in1006.4 mb - 0.00 in0.0 mm 0.13 in3.3 mm
06:15 PM 81.4°F27.4°C 62.1°F16.7°C 52% Calm Calm -- 29.73 in1006.8 mb - 0.00 in0.0 mm 0.13 in3.3 mm
06:20 PM 80.9°F27.2°C 62.1°F16.7°C 53% Calm Calm -- 29.73 in1006.8 mb - 0.00 in0.0 mm 0.13 in3.3 mm
06:25 PM 80.4°F26.9°C 62.3°F16.8°C 54% Calm Calm -- 29.73 in1006.8 mb - 0.00 in0.0 mm 0.13 in3.3 mm
06:30 PM 80.1°F26.7°C 62.0°F16.7°C 54% Calm Calm -- 29.73 in1006.8 mb - 0.00 in0.0 mm 0.13 in3.3 mm
06:35 PM 79.9°F26.6°C 61.8°F16.6°C 54% Calm Calm -- 29.73 in1006.8 mb - 0.00 in0.0 mm 0.13 in3.3 mm
06:40 PM 79.8°F26.6°C 62.2°F16.8°C 55% Calm Calm -- 29.73 in1006.8 mb - 0.00 in0.0 mm 0.13 in3.3 mm
06:45 PM 79.6°F26.4°C 62.5°F16.9°C 56% Calm Calm -- 29.73 in1006.8 mb - 0.00 in0.0 mm 0.13 in3.3 mm
06:50 PM 79.4°F26.3°C 62.8°F17.1°C 57% Calm Calm -- 29.73 in1006.8 mb - 0.00 in0.0 mm 0.13 in3.3 mm
06:55 PM 79.1°F26.2°C 62.1°F16.7°C 56% Calm Calm -- 29.73 in1006.8 mb - 0.00 in0.0 mm 0.13 in3.3 mm
07:00 PM 79.0°F26.1°C 62.5°F16.9°C 57% Calm Calm -- 29.73 in1006.8 mb - 0.00 in0.0 mm 0.13 in3.3 mm
07:05 PM 78.9°F26.1°C 62.9°F17.2°C 58% Calm Calm -- 29.74 in1007.1 mb - 0.00 in0.0 mm 0.13 in3.3 mm
07:10 PM 78.7°F25.9°C 64.6°F18.1°C 62% Calm Calm -- 29.74 in1007.1 mb - 0.00 in0.0 mm 0.13 in3.3 mm
07:15 PM 78.4°F25.8°C 65.7°F18.7°C 65% Calm Calm -- 29.74 in1007.1 mb - 0.00 in0.0 mm 0.13 in3.3 mm
07:20 PM 77.9°F25.5°C 64.8°F18.2°C 64% Calm Calm -- 29.74 in1007.1 mb - 0.00 in0.0 mm 0.13 in3.3 mm
07:25 PM 77.6°F25.3°C 65.4°F18.6°C 66% Calm Calm -- 29.74 in1007.1 mb - 0.00 in0.0 mm 0.13 in3.3 mm
07:30 PM 77.2°F25.1°C 65.0°F18.3°C 66% Calm Calm -- 29.75 in1007.5 mb - 0.00 in0.0 mm 0.13 in3.3 mm
07:35 PM 76.7°F24.8°C 64.5°F18.1°C 66% Calm Calm -- 29.75 in1007.5 mb - 0.00 in0.0 mm 0.13 in3.3 mm
07:40 PM 76.2°F24.6°C 64.4°F18.0°C 67% Calm Calm -- 29.75 in1007.5 mb - 0.00 in0.0 mm 0.13 in3.3 mm
07:45 PM 75.9°F24.4°C 64.1°F17.8°C 67% Calm Calm -- 29.75 in1007.5 mb - 0.00 in0.0 mm 0.13 in3.3 mm
07:50 PM 75.5°F24.2°C 64.2°F17.9°C 68% Calm Calm -- 29.75 in1007.5 mb - 0.00 in0.0 mm 0.13 in3.3 mm
07:55 PM 75.1°F23.9°C 63.8°F17.7°C 68% Calm Calm -- 29.75 in1007.5 mb - 0.00 in0.0 mm 0.13 in3.3 mm
08:00 PM 74.8°F23.8°C 64.4°F18.0°C 70% Calm Calm -- 29.75 in1007.5 mb - 0.00 in0.0 mm 0.13 in3.3 mm
08:05 PM 74.6°F23.7°C 64.1°F17.8°C 70% Calm Calm -- 29.75 in1007.5 mb - 0.00 in0.0 mm 0.13 in3.3 mm
08:10 PM 74.2°F23.4°C 64.2°F17.9°C 71% Calm Calm -- 29.75 in1007.5 mb - 0.00 in0.0 mm 0.13 in3.3 mm
08:15 PM 73.8°F23.2°C 64.2°F17.9°C 72% Calm Calm -- 29.75 in1007.5 mb - 0.00 in0.0 mm 0.13 in3.3 mm
08:20 PM 73.6°F23.1°C 64.0°F17.8°C 72% Calm Calm -- 29.76 in1007.8 mb - 0.00 in0.0 mm 0.13 in3.3 mm
08:25 PM 73.5°F23.1°C 63.9°F17.7°C 72% Calm Calm -- 29.76 in1007.8 mb - 0.00 in0.0 mm 0.13 in3.3 mm
08:30 PM 73.2°F22.9°C 64.0°F17.8°C 73% Calm Calm -- 29.76 in1007.8 mb - 0.00 in0.0 mm 0.13 in3.3 mm
08:35 PM 73.0°F22.8°C 63.8°F17.7°C 73% Calm Calm -- 29.77 in1008.1 mb - 0.00 in0.0 mm 0.13 in3.3 mm
08:40 PM 72.8°F22.7°C 64.0°F17.8°C 74% Calm Calm -- 29.77 in1008.1 mb - 0.00 in0.0 mm 0.13 in3.3 mm
08:45 PM 72.6°F22.6°C 63.8°F17.7°C 74% Calm Calm -- 29.77 in1008.1 mb - 0.00 in0.0 mm 0.13 in3.3 mm
08:50 PM 72.3°F22.4°C 64.7°F18.2°C 77% Calm Calm -- 29.77 in1008.1 mb - 0.00 in0.0 mm 0.13 in3.3 mm
08:55 PM 71.9°F22.2°C 64.3°F17.9°C 77% Calm Calm -- 29.77 in1008.1 mb - 0.00 in0.0 mm 0.13 in3.3 mm
09:00 PM 71.5°F21.9°C 63.5°F17.5°C 76% Calm Calm -- 29.77 in1008.1 mb - 0.00 in0.0 mm 0.13 in3.3 mm
09:05 PM 71.2°F21.8°C 63.2°F17.3°C 76% Calm Calm -- 29.78 in1008.5 mb - 0.00 in0.0 mm 0.13 in3.3 mm
09:10 PM 70.9°F21.6°C 63.3°F17.4°C 77% Calm Calm -- 29.77 in1008.1 mb - 0.00 in0.0 mm 0.13 in3.3 mm
09:15 PM 70.9°F21.6°C 62.6°F17.0°C 75% Calm Calm -- 29.78 in1008.5 mb - 0.00 in0.0 mm 0.13 in3.3 mm
09:20 PM 71.0°F21.7°C 62.3°F16.8°C 74% Calm Calm -- 29.78 in1008.5 mb - 0.00 in0.0 mm 0.13 in3.3 mm
09:25 PM 71.0°F21.7°C 61.9°F16.6°C 73% Calm Calm -- 29.78 in1008.5 mb - 0.00 in0.0 mm 0.13 in3.3 mm
09:30 PM 71.0°F21.7°C 61.1°F16.2°C 71% Calm Calm -- 29.78 in1008.5 mb - 0.00 in0.0 mm 0.13 in3.3 mm
09:35 PM 71.0°F21.7°C 61.1°F16.2°C 71% Calm Calm -- 29.78 in1008.5 mb - 0.00 in0.0 mm 0.13 in3.3 mm
09:40 PM 70.8°F21.6°C 60.9°F16.1°C 71% Calm Calm -- 29.78 in1008.5 mb - 0.00 in0.0 mm 0.13 in3.3 mm
09:45 PM 70.6°F21.4°C 60.4°F15.8°C 70% Calm Calm -- 29.79 in1008.8 mb - 0.00 in0.0 mm 0.13 in3.3 mm
09:50 PM 70.4°F21.3°C 59.8°F15.4°C 69% Calm Calm -- 29.79 in1008.8 mb - 0.00 in0.0 mm 0.13 in3.3 mm
09:55 PM 70.3°F21.3°C 59.2°F15.1°C 68% Calm Calm -- 29.79 in1008.8 mb - 0.00 in0.0 mm 0.13 in3.3 mm
10:00 PM 70.1°F21.2°C 58.6°F14.8°C 67% Calm Calm -- 29.79 in1008.8 mb - 0.00 in0.0 mm 0.13 in3.3 mm
10:05 PM 69.9°F21.1°C 58.4°F14.7°C 67% Calm Calm -- 29.79 in1008.8 mb - 0.00 in0.0 mm 0.13 in3.3 mm
10:10 PM 69.6°F20.9°C 58.2°F14.6°C 67% Calm Calm -- 29.80 in1009.1 mb - 0.00 in0.0 mm 0.13 in3.3 mm
10:15 PM 69.6°F20.9°C 57.7°F14.3°C 66% Calm Calm -- 29.80 in1009.1 mb - 0.00 in0.0 mm 0.13 in3.3 mm
10:20 PM 69.7°F20.9°C 57.8°F14.3°C 66% Calm Calm -- 29.80 in1009.1 mb - 0.00 in0.0 mm 0.13 in3.3 mm
10:25 PM 69.7°F20.9°C 57.4°F14.1°C 65% Calm Calm -- 29.80 in1009.1 mb - 0.00 in0.0 mm 0.13 in3.3 mm
10:30 PM 70.1°F21.2°C 57.8°F14.3°C 65% Calm Calm -- 29.80 in1009.1 mb - 0.00 in0.0 mm 0.13 in3.3 mm
10:35 PM 70.3°F21.3°C 57.1°F13.9°C 63% Calm Calm -- 29.80 in1009.1 mb - 0.00 in0.0 mm 0.13 in3.3 mm
10:40 PM 70.2°F21.2°C 57.0°F13.9°C 63% Calm Calm -- 29.80 in1009.1 mb - 0.00 in0.0 mm 0.13 in3.3 mm
10:45 PM 69.9°F21.1°C 55.8°F13.2°C 61% Calm Calm -- 29.80 in1009.1 mb - 0.00 in0.0 mm 0.13 in3.3 mm
10:50 PM 69.8°F21.0°C 56.6°F13.7°C 63% Calm Calm -- 29.81 in1009.5 mb - 0.00 in0.0 mm 0.13 in3.3 mm
10:55 PM 69.6°F20.9°C 56.9°F13.8°C 64% Calm Calm -- 29.81 in1009.5 mb - 0.00 in0.0 mm 0.13 in3.3 mm
11:00 PM 69.8°F21.0°C 56.6°F13.7°C 63% Calm Calm -- 29.81 in1009.5 mb - 0.00 in0.0 mm 0.13 in3.3 mm
11:05 PM 70.0°F21.1°C 56.4°F13.6°C 62% Calm Calm -- 29.81 in1009.5 mb - 0.00 in0.0 mm 0.13 in3.3 mm
11:10 PM 70.6°F21.4°C 57.8°F14.3°C 64% Calm Calm 3.5 mph5.6 kmh 29.81 in1009.5 mb - 0.00 in0.0 mm 0.13 in3.3 mm
11:15 PM 71.2°F21.8°C 56.2°F13.4°C 59% Calm Calm 2.3 mph3.7 kmh 29.82 in1009.8 mb - 0.00 in0.0 mm 0.13 in3.3 mm
11:20 PM 71.8°F22.1°C 55.8°F13.2°C 57% 1.2 mph NNW1.9 kmh NNW 3.5 mph5.6 kmh 29.82 in1009.8 mb - 0.00 in0.0 mm 0.13 in3.3 mm
11:25 PM 72.2°F22.3°C 55.6°F13.1°C 56% 1.2 mph NNW1.9 kmh NNW 2.3 mph3.7 kmh 29.82 in1009.8 mb - 0.00 in0.0 mm 0.13 in3.3 mm
11:30 PM 72.4°F22.4°C 55.3°F12.9°C 55% 1.2 mph NW1.9 kmh NW 1.2 mph1.9 kmh 29.82 in1009.8 mb - 0.00 in0.0 mm 0.13 in3.3 mm
11:35 PM 72.5°F22.5°C 55.9°F13.3°C 56% Calm Calm 1.2 mph1.9 kmh 29.82 in1009.8 mb - 0.00 in0.0 mm 0.13 in3.3 mm
11:40 PM 72.5°F22.5°C 55.9°F13.3°C 56% Calm Calm 1.2 mph1.9 kmh 29.83 in1010.2 mb - 0.00 in0.0 mm 0.13 in3.3 mm
11:45 PM 72.4°F22.4°C 55.8°F13.2°C 56% Calm Calm -- 29.83 in1010.2 mb - 0.00 in0.0 mm 0.13 in3.3 mm
11:50 PM 72.3°F22.4°C 55.7°F13.2°C 56% Calm Calm 1.2 mph1.9 kmh 29.83 in1010.2 mb - 0.00 in0.0 mm 0.13 in3.3 mm
11:55 PM 72.2°F22.3°C 55.6°F13.1°C 56% Calm Calm -- 29.83 in1010.2 mb - 0.00 in0.0 mm 0.13 in3.3 mm